sensor_id;sensor_type;location;lat;lon;timestamp;temperature;humidity
20422;DHT22;10370;53.102;18.034;2024-01-27T00:02:21;5.10;99.90
20422;DHT22;10370;53.102;18.034;2024-01-27T00:07:43;5.00;99.90
20422;DHT22;10370;53.102;18.034;2024-01-27T00:13:06;4.90;99.90
20422;DHT22;10370;53.102;18.034;2024-01-27T00:18:29;4.90;99.90
20422;DHT22;10370;53.102;18.034;2024-01-27T00:23:51;4.90;99.90
20422;DHT22;10370;53.102;18.034;2024-01-27T00:29:14;4.80;99.90
20422;DHT22;10370;53.102;18.034;2024-01-27T00:34:37;4.80;99.90
20422;DHT22;10370;53.102;18.034;2024-01-27T00:40:00;4.80;99.90
20422;DHT22;10370;53.102;18.034;2024-01-27T00:45:22;4.80;99.90
20422;DHT22;10370;53.102;18.034;2024-01-27T00:50:45;4.80;99.90
20422;DHT22;10370;53.102;18.034;2024-01-27T00:56:08;4.80;99.90
20422;DHT22;10370;53.102;18.034;2024-01-27T01:01:31;4.80;99.90
20422;DHT22;10370;53.102;18.034;2024-01-27T01:06:53;4.80;99.90
20422;DHT22;10370;53.102;18.034;2024-01-27T01:12:16;4.80;99.90
20422;DHT22;10370;53.102;18.034;2024-01-27T01:17:38;4.80;99.90
20422;DHT22;10370;53.102;18.034;2024-01-27T01:23:01;4.80;99.90
20422;DHT22;10370;53.102;18.034;2024-01-27T01:28:24;4.80;99.90
20422;DHT22;10370;53.102;18.034;2024-01-27T01:33:47;4.80;99.90
20422;DHT22;10370;53.102;18.034;2024-01-27T01:39:10;4.80;99.90
20422;DHT22;10370;53.102;18.034;2024-01-27T01:44:33;4.80;99.90
20422;DHT22;10370;53.102;18.034;2024-01-27T01:49:56;4.80;99.90
20422;DHT22;10370;53.102;18.034;2024-01-27T01:55:19;4.80;99.90
20422;DHT22;10370;53.102;18.034;2024-01-27T02:05:59;4.70;99.90
20422;DHT22;10370;53.102;18.034;2024-01-27T02:11:22;4.70;99.90
20422;DHT22;10370;53.102;18.034;2024-01-27T02:16:44;4.70;99.90
20422;DHT22;10370;53.102;18.034;2024-01-27T02:22:07;4.80;99.90
20422;DHT22;10370;53.102;18.034;2024-01-27T02:27:29;4.80;99.90
20422;DHT22;10370;53.102;18.034;2024-01-27T02:32:52;4.80;99.90
20422;DHT22;10370;53.102;18.034;2024-01-27T02:38:15;4.80;99.90
20422;DHT22;10370;53.102;18.034;2024-01-27T02:43:38;4.80;99.90
20422;DHT22;10370;53.102;18.034;2024-01-27T02:49:01;4.80;99.90
20422;DHT22;10370;53.102;18.034;2024-01-27T02:54:23;4.90;99.90
20422;DHT22;10370;53.102;18.034;2024-01-27T02:59:46;4.90;99.90
20422;DHT22;10370;53.102;18.034;2024-01-27T03:05:09;4.90;99.90
20422;DHT22;10370;53.102;18.034;2024-01-27T03:10:32;4.90;99.90
20422;DHT22;10370;53.102;18.034;2024-01-27T03:15:54;4.90;99.90
20422;DHT22;10370;53.102;18.034;2024-01-27T03:21:18;4.90;99.90
20422;DHT22;10370;53.102;18.034;2024-01-27T03:26:40;4.90;99.90
20422;DHT22;10370;53.102;18.034;2024-01-27T03:32:03;4.90;99.90
20422;DHT22;10370;53.102;18.034;2024-01-27T03:37:26;4.90;99.90
20422;DHT22;10370;53.102;18.034;2024-01-27T03:42:49;4.80;99.90
20422;DHT22;10370;53.102;18.034;2024-01-27T03:48:11;4.60;99.90
20422;DHT22;10370;53.102;18.034;2024-01-27T03:53:34;4.60;99.90
20422;DHT22;10370;53.102;18.034;2024-01-27T03:58:57;4.50;99.90
20422;DHT22;10370;53.102;18.034;2024-01-27T04:04:19;4.40;99.90
20422;DHT22;10370;53.102;18.034;2024-01-27T04:09:42;4.40;99.90
20422;DHT22;10370;53.102;18.034;2024-01-27T04:15:07;4.40;99.90
20422;DHT22;10370;53.102;18.034;2024-01-27T04:20:31;4.40;99.90
20422;DHT22;10370;53.102;18.034;2024-01-27T04:25:53;4.40;99.90
20422;DHT22;10370;53.102;18.034;2024-01-27T04:31:16;4.30;99.90
20422;DHT22;10370;53.102;18.034;2024-01-27T04:36:48;4.30;99.90
20422;DHT22;10370;53.102;18.034;2024-01-27T04:42:14;4.30;99.90
20422;DHT22;10370;53.102;18.034;2024-01-27T04:47:39;4.20;99.90
20422;DHT22;10370;53.102;18.034;2024-01-27T04:53:07;4.10;99.90
20422;DHT22;10370;53.102;18.034;2024-01-27T04:58:30;4.10;99.90
20422;DHT22;10370;53.102;18.034;2024-01-27T05:03:53;4.10;99.90
20422;DHT22;10370;53.102;18.034;2024-01-27T05:09:28;4.10;99.90
20422;DHT22;10370;53.102;18.034;2024-01-27T05:14:53;4.00;99.90
20422;DHT22;10370;53.102;18.034;2024-01-27T05:20:19;4.00;99.90
20422;DHT22;10370;53.102;18.034;2024-01-27T05:25:49;4.00;99.90
20422;DHT22;10370;53.102;18.034;2024-01-27T05:31:15;4.00;99.90
20422;DHT22;10370;53.102;18.034;2024-01-27T05:36:38;4.00;99.90
20422;DHT22;10370;53.102;18.034;2024-01-27T05:42:00;4.00;99.90
20422;DHT22;10370;53.102;18.034;2024-01-27T05:47:23;4.00;99.90
20422;DHT22;10370;53.102;18.034;2024-01-27T05:52:46;3.90;99.90
20422;DHT22;10370;53.102;18.034;2024-01-27T05:58:08;3.90;99.90
20422;DHT22;10370;53.102;18.034;2024-01-27T06:03:31;3.90;99.90
20422;DHT22;10370;53.102;18.034;2024-01-27T06:09:03;3.90;99.90
20422;DHT22;10370;53.102;18.034;2024-01-27T06:14:26;3.90;99.90
20422;DHT22;10370;53.102;18.034;2024-01-27T06:19:49;3.90;99.90
20422;DHT22;10370;53.102;18.034;2024-01-27T06:25:12;3.80;99.90
20422;DHT22;10370;53.102;18.034;2024-01-27T06:30:34;3.80;99.90
20422;DHT22;10370;53.102;18.034;2024-01-27T06:36:09;3.80;99.90
20422;DHT22;10370;53.102;18.034;2024-01-27T06:41:39;3.80;99.90
20422;DHT22;10370;53.102;18.034;2024-01-27T06:47:19;3.80;99.90
20422;DHT22;10370;53.102;18.034;2024-01-27T06:52:42;3.80;99.90
20422;DHT22;10370;53.102;18.034;2024-01-27T06:58:26;3.80;99.90
20422;DHT22;10370;53.102;18.034;2024-01-27T07:03:47;3.70;99.90
20422;DHT22;10370;53.102;18.034;2024-01-27T07:09:11;3.80;99.90
20422;DHT22;10370;53.102;18.034;2024-01-27T07:14:35;3.80;99.90
20422;DHT22;10370;53.102;18.034;2024-01-27T07:19:58;3.70;99.90
20422;DHT22;10370;53.102;18.034;2024-01-27T07:26:25;3.80;99.90
20422;DHT22;10370;53.102;18.034;2024-01-27T07:31:52;3.70;99.90
20422;DHT22;10370;53.102;18.034;2024-01-27T07:37:19;3.70;99.90
20422;DHT22;10370;53.102;18.034;2024-01-27T07:42:57;3.70;99.90
20422;DHT22;10370;53.102;18.034;2024-01-27T07:48:20;3.60;99.90
20422;DHT22;10370;53.102;18.034;2024-01-27T07:53:43;3.70;99.90
20422;DHT22;10370;53.102;18.034;2024-01-27T07:59:06;3.60;99.90
20422;DHT22;10370;53.102;18.034;2024-01-27T08:04:38;3.60;99.90
20422;DHT22;10370;53.102;18.034;2024-01-27T08:10:07;3.60;99.90
20422;DHT22;10370;53.102;18.034;2024-01-27T08:15:42;3.60;99.90
20422;DHT22;10370;53.102;18.034;2024-01-27T08:21:08;3.60;99.90
20422;DHT22;10370;53.102;18.034;2024-01-27T08:26:40;3.60;99.90
20422;DHT22;10370;53.102;18.034;2024-01-27T08:32:13;3.60;99.90
20422;DHT22;10370;53.102;18.034;2024-01-27T08:37:39;3.60;99.90
20422;DHT22;10370;53.102;18.034;2024-01-27T08:43:02;3.70;99.90
20422;DHT22;10370;53.102;18.034;2024-01-27T08:48:25;3.70;99.90
20422;DHT22;10370;53.102;18.034;2024-01-27T08:53:48;3.80;99.90
20422;DHT22;10370;53.102;18.034;2024-01-27T08:59:13;3.90;99.90
20422;DHT22;10370;53.102;18.034;2024-01-27T09:11:53;4.00;99.90
20422;DHT22;10370;53.102;18.034;2024-01-27T09:17:21;4.10;99.90
20422;DHT22;10370;53.102;18.034;2024-01-27T09:22:43;4.10;99.90
20422;DHT22;10370;53.102;18.034;2024-01-27T09:28:09;4.20;99.90
20422;DHT22;10370;53.102;18.034;2024-01-27T09:33:33;4.20;99.90
20422;DHT22;10370;53.102;18.034;2024-01-27T09:38:59;4.20;99.90
20422;DHT22;10370;53.102;18.034;2024-01-27T09:44:38;4.20;99.90
20422;DHT22;10370;53.102;18.034;2024-01-27T09:56:14;4.20;99.90
20422;DHT22;10370;53.102;18.034;2024-01-27T10:01:41;4.20;99.90
20422;DHT22;10370;53.102;18.034;2024-01-27T10:07:04;4.20;99.90
20422;DHT22;10370;53.102;18.034;2024-01-27T10:12:28;4.30;99.90
20422;DHT22;10370;53.102;18.034;2024-01-27T10:23:41;4.40;99.90
20422;DHT22;10370;53.102;18.034;2024-01-27T10:29:04;4.40;99.90
20422;DHT22;10370;53.102;18.034;2024-01-27T10:34:26;4.50;99.90
20422;DHT22;10370;53.102;18.034;2024-01-27T10:39:49;4.60;99.90
20422;DHT22;10370;53.102;18.034;2024-01-27T10:45:36;4.60;99.90
20422;DHT22;10370;53.102;18.034;2024-01-27T10:51:01;4.60;99.90
20422;DHT22;10370;53.102;18.034;2024-01-27T10:56:33;4.70;99.90
20422;DHT22;10370;53.102;18.034;2024-01-27T11:01:56;4.70;99.90
20422;DHT22;10370;53.102;18.034;2024-01-27T11:07:20;4.80;99.90
20422;DHT22;10370;53.102;18.034;2024-01-27T11:12:47;4.80;99.90
20422;DHT22;10370;53.102;18.034;2024-01-27T11:18:09;4.80;99.90
20422;DHT22;10370;53.102;18.034;2024-01-27T11:23:34;4.80;99.90
20422;DHT22;10370;53.102;18.034;2024-01-27T11:29:06;4.90;99.90
20422;DHT22;10370;53.102;18.034;2024-01-27T11:34:46;4.90;99.90
20422;DHT22;10370;53.102;18.034;2024-01-27T11:40:10;4.90;99.90
20422;DHT22;10370;53.102;18.034;2024-01-27T11:45:33;5.00;99.90
20422;DHT22;10370;53.102;18.034;2024-01-27T11:51:07;5.00;99.90
20422;DHT22;10370;53.102;18.034;2024-01-27T11:56:39;5.10;99.90
20422;DHT22;10370;53.102;18.034;2024-01-27T12:02:02;5.10;99.90
20422;DHT22;10370;53.102;18.034;2024-01-27T12:07:26;5.10;99.90
20422;DHT22;10370;53.102;18.034;2024-01-27T12:19:11;5.20;99.90
20422;DHT22;10370;53.102;18.034;2024-01-27T12:31:45;5.30;99.90
20422;DHT22;10370;53.102;18.034;2024-01-27T12:37:15;5.40;99.90
20422;DHT22;10370;53.102;18.034;2024-01-27T12:42:39;5.50;99.90
20422;DHT22;10370;53.102;18.034;2024-01-27T12:48:05;5.50;99.90
20422;DHT22;10370;53.102;18.034;2024-01-27T12:53:28;5.60;99.90
20422;DHT22;10370;53.102;18.034;2024-01-27T12:58:51;5.70;99.90
20422;DHT22;10370;53.102;18.034;2024-01-27T13:04:14;5.70;99.90
20422;DHT22;10370;53.102;18.034;2024-01-27T13:09:37;5.80;99.90
20422;DHT22;10370;53.102;18.034;2024-01-27T13:15:02;5.80;99.90
20422;DHT22;10370;53.102;18.034;2024-01-27T13:26:35;5.90;99.90
20422;DHT22;10370;53.102;18.034;2024-01-27T13:32:01;6.00;99.90
20422;DHT22;10370;53.102;18.034;2024-01-27T13:37:25;6.00;99.90
20422;DHT22;10370;53.102;18.034;2024-01-27T13:42:48;6.00;99.90
20422;DHT22;10370;53.102;18.034;2024-01-27T13:48:11;6.00;99.90
20422;DHT22;10370;53.102;18.034;2024-01-27T14:00:26;6.00;99.90
20422;DHT22;10370;53.102;18.034;2024-01-27T14:05:57;6.00;99.90
20422;DHT22;10370;53.102;18.034;2024-01-27T14:11:20;5.90;99.90
20422;DHT22;10370;53.102;18.034;2024-01-27T14:16:44;5.90;99.90
20422;DHT22;10370;53.102;18.034;2024-01-27T14:22:10;5.80;99.90
20422;DHT22;10370;53.102;18.034;2024-01-27T14:27:33;5.80;99.90
20422;DHT22;10370;53.102;18.034;2024-01-27T14:33:18;5.70;99.90
20422;DHT22;10370;53.102;18.034;2024-01-27T14:38:45;5.70;99.90
20422;DHT22;10370;53.102;18.034;2024-01-27T14:44:25;5.60;99.90
20422;DHT22;10370;53.102;18.034;2024-01-27T14:50:01;5.60;99.90
20422;DHT22;10370;53.102;18.034;2024-01-27T14:55:24;5.50;99.90
20422;DHT22;10370;53.102;18.034;2024-01-27T15:00:49;5.40;99.90
20422;DHT22;10370;53.102;18.034;2024-01-27T15:12:52;5.30;99.90
20422;DHT22;10370;53.102;18.034;2024-01-27T15:18:29;5.10;99.90
20422;DHT22;10370;53.102;18.034;2024-01-27T15:24:57;5.10;99.90
20422;DHT22;10370;53.102;18.034;2024-01-27T15:30:57;5.00;99.90
20422;DHT22;10370;53.102;18.034;2024-01-27T15:36:20;4.90;99.90
20422;DHT22;10370;53.102;18.034;2024-01-27T15:42:09;4.90;99.90
20422;DHT22;10370;53.102;18.034;2024-01-27T15:47:32;4.80;99.90
20422;DHT22;10370;53.102;18.034;2024-01-27T16:00:45;4.70;99.90
20422;DHT22;10370;53.102;18.034;2024-01-27T16:07:02;4.60;99.90
20422;DHT22;10370;53.102;18.034;2024-01-27T16:12:40;4.60;99.90
20422;DHT22;10370;53.102;18.034;2024-01-27T16:18:13;4.50;99.90
20422;DHT22;10370;53.102;18.034;2024-01-27T16:23:50;4.40;99.90
20422;DHT22;10370;53.102;18.034;2024-01-27T16:29:13;4.40;99.90
20422;DHT22;10370;53.102;18.034;2024-01-27T16:34:36;4.40;99.90
20422;DHT22;10370;53.102;18.034;2024-01-27T16:39:59;4.30;99.90
20422;DHT22;10370;53.102;18.034;2024-01-27T16:45:21;4.30;99.90
20422;DHT22;10370;53.102;18.034;2024-01-27T16:50:44;4.30;99.90
20422;DHT22;10370;53.102;18.034;2024-01-27T16:56:08;4.30;99.90
20422;DHT22;10370;53.102;18.034;2024-01-27T17:01:31;4.40;99.90
20422;DHT22;10370;53.102;18.034;2024-01-27T17:06:54;4.40;99.90
20422;DHT22;10370;53.102;18.034;2024-01-27T17:12:17;4.40;99.90
20422;DHT22;10370;53.102;18.034;2024-01-27T17:17:40;4.60;99.90
20422;DHT22;10370;53.102;18.034;2024-01-27T17:23:03;4.70;99.90
20422;DHT22;10370;53.102;18.034;2024-01-27T17:28:26;4.70;99.90
20422;DHT22;10370;53.102;18.034;2024-01-27T17:33:49;4.80;99.90
20422;DHT22;10370;53.102;18.034;2024-01-27T17:39:13;4.90;99.90
20422;DHT22;10370;53.102;18.034;2024-01-27T17:45:14;4.90;99.90
20422;DHT22;10370;53.102;18.034;2024-01-27T17:50:37;4.90;99.90
20422;DHT22;10370;53.102;18.034;2024-01-27T17:56:01;4.90;99.90
20422;DHT22;10370;53.102;18.034;2024-01-27T18:01:24;4.80;99.90
20422;DHT22;10370;53.102;18.034;2024-01-27T18:07:19;4.80;99.90
20422;DHT22;10370;53.102;18.034;2024-01-27T18:12:42;4.80;99.90
20422;DHT22;10370;53.102;18.034;2024-01-27T18:18:23;4.80;99.90
20422;DHT22;10370;53.102;18.034;2024-01-27T18:24:07;4.80;99.90
20422;DHT22;10370;53.102;18.034;2024-01-27T18:29:43;4.80;99.90
20422;DHT22;10370;53.102;18.034;2024-01-27T18:35:24;4.80;99.90
20422;DHT22;10370;53.102;18.034;2024-01-27T18:40:53;4.80;99.90
20422;DHT22;10370;53.102;18.034;2024-01-27T18:46:16;4.80;99.90
20422;DHT22;10370;53.102;18.034;2024-01-27T18:51:39;4.80;99.90
20422;DHT22;10370;53.102;18.034;2024-01-27T18:57:01;4.80;99.90
20422;DHT22;10370;53.102;18.034;2024-01-27T19:02:25;4.80;99.90
20422;DHT22;10370;53.102;18.034;2024-01-27T19:07:51;4.80;99.90
20422;DHT22;10370;53.102;18.034;2024-01-27T19:13:26;4.80;99.90
20422;DHT22;10370;53.102;18.034;2024-01-27T19:18:58;4.80;99.90
20422;DHT22;10370;53.102;18.034;2024-01-27T19:24:50;4.80;99.90
20422;DHT22;10370;53.102;18.034;2024-01-27T19:44:01;4.80;99.90
20422;DHT22;10370;53.102;18.034;2024-01-27T19:49:33;4.80;99.90
20422;DHT22;10370;53.102;18.034;2024-01-27T19:54:57;4.80;99.90
20422;DHT22;10370;53.102;18.034;2024-01-27T20:00:22;4.80;99.90
20422;DHT22;10370;53.102;18.034;2024-01-27T20:06:03;4.80;99.90
20422;DHT22;10370;53.102;18.034;2024-01-27T20:11:26;4.80;99.90
20422;DHT22;10370;53.102;18.034;2024-01-27T20:16:49;4.80;99.90
20422;DHT22;10370;53.102;18.034;2024-01-27T20:22:40;4.80;99.90
20422;DHT22;10370;53.102;18.034;2024-01-27T20:28:48;4.80;99.90
20422;DHT22;10370;53.102;18.034;2024-01-27T20:34:38;4.80;99.90
20422;DHT22;10370;53.102;18.034;2024-01-27T20:40:01;4.80;99.90
20422;DHT22;10370;53.102;18.034;2024-01-27T20:45:24;4.80;99.90
20422;DHT22;10370;53.102;18.034;2024-01-27T20:50:55;4.80;99.90
20422;DHT22;10370;53.102;18.034;2024-01-27T20:56:18;4.80;99.90
20422;DHT22;10370;53.102;18.034;2024-01-27T21:01:41;4.90;99.90
20422;DHT22;10370;53.102;18.034;2024-01-27T21:07:13;4.90;99.90
20422;DHT22;10370;53.102;18.034;2024-01-27T21:12:42;4.90;99.90
20422;DHT22;10370;53.102;18.034;2024-01-27T21:18:14;4.90;99.90
20422;DHT22;10370;53.102;18.034;2024-01-27T21:23:53;4.90;99.90
20422;DHT22;10370;53.102;18.034;2024-01-27T21:29:26;4.90;99.90
20422;DHT22;10370;53.102;18.034;2024-01-27T21:34:49;4.90;99.90
20422;DHT22;10370;53.102;18.034;2024-01-27T21:40:12;4.80;99.90
20422;DHT22;10370;53.102;18.034;2024-01-27T21:45:35;4.90;99.90
20422;DHT22;10370;53.102;18.034;2024-01-27T21:50:58;4.80;99.90
20422;DHT22;10370;53.102;18.034;2024-01-27T21:56:21;4.80;99.90
20422;DHT22;10370;53.102;18.034;2024-01-27T22:01:47;4.80;99.90
20422;DHT22;10370;53.102;18.034;2024-01-27T22:07:12;4.80;99.90
20422;DHT22;10370;53.102;18.034;2024-01-27T22:12:38;4.80;99.90
20422;DHT22;10370;53.102;18.034;2024-01-27T22:18:01;4.80;99.90
20422;DHT22;10370;53.102;18.034;2024-01-27T22:23:25;4.80;99.90
20422;DHT22;10370;53.102;18.034;2024-01-27T22:28:48;4.80;99.90
20422;DHT22;10370;53.102;18.034;2024-01-27T22:34:12;4.80;99.90
20422;DHT22;10370;53.102;18.034;2024-01-27T22:39:39;4.80;99.90
20422;DHT22;10370;53.102;18.034;2024-01-27T22:45:02;4.90;99.90
20422;DHT22;10370;53.102;18.034;2024-01-27T22:50:24;4.80;99.90
20422;DHT22;10370;53.102;18.034;2024-01-27T22:55:47;4.80;99.90
20422;DHT22;10370;53.102;18.034;2024-01-27T23:01:10;4.80;99.90
20422;DHT22;10370;53.102;18.034;2024-01-27T23:06:34;4.80;99.90
20422;DHT22;10370;53.102;18.034;2024-01-27T23:11:57;4.80;99.90
20422;DHT22;10370;53.102;18.034;2024-01-27T23:17:21;4.90;99.90
20422;DHT22;10370;53.102;18.034;2024-01-27T23:22:43;4.90;99.90
20422;DHT22;10370;53.102;18.034;2024-01-27T23:28:06;4.90;99.90
20422;DHT22;10370;53.102;18.034;2024-01-27T23:33:30;4.90;99.90
20422;DHT22;10370;53.102;18.034;2024-01-27T23:38:52;4.90;99.90
20422;DHT22;10370;53.102;18.034;2024-01-27T23:44:15;4.90;99.90
20422;DHT22;10370;53.102;18.034;2024-01-27T23:49:38;4.90;99.90
